sensor_id;sensor_type;location;lat;lon;timestamp;temperature;humidity
68051;DHT22;54839;51.364;7.246;2023-10-13T00:00:27;16.90;99.90
68051;DHT22;54839;51.364;7.246;2023-10-13T00:02:58;16.90;99.90
68051;DHT22;54839;51.364;7.246;2023-10-13T00:05:28;16.90;99.90
68051;DHT22;54839;51.364;7.246;2023-10-13T00:07:56;16.90;99.90
68051;DHT22;54839;51.364;7.246;2023-10-13T00:10:22;16.90;99.90
68051;DHT22;54839;51.364;7.246;2023-10-13T00:12:48;17.00;99.90
68051;DHT22;54839;51.364;7.246;2023-10-13T00:15:17;17.10;99.90
68051;DHT22;54839;51.364;7.246;2023-10-13T00:17:44;17.10;99.90
68051;DHT22;54839;51.364;7.246;2023-10-13T00:20:09;17.00;99.90
68051;DHT22;54839;51.364;7.246;2023-10-13T00:23:03;17.00;99.90
68051;DHT22;54839;51.364;7.246;2023-10-13T00:25:29;17.10;99.90
68051;DHT22;54839;51.364;7.246;2023-10-13T00:27:59;17.00;99.90
68051;DHT22;54839;51.364;7.246;2023-10-13T00:30:26;17.10;99.90
68051;DHT22;54839;51.364;7.246;2023-10-13T00:32:59;17.10;99.90
68051;DHT22;54839;51.364;7.246;2023-10-13T00:35:29;17.10;99.90
68051;DHT22;54839;51.364;7.246;2023-10-13T00:38:04;17.10;99.90
68051;DHT22;54839;51.364;7.246;2023-10-13T00:40:39;17.10;99.90
68051;DHT22;54839;51.364;7.246;2023-10-13T00:43:04;17.10;99.90
68051;DHT22;54839;51.364;7.246;2023-10-13T00:45:56;17.10;99.90
68051;DHT22;54839;51.364;7.246;2023-10-13T00:48:33;17.00;99.90
68051;DHT22;54839;51.364;7.246;2023-10-13T00:51:04;17.00;99.90
68051;DHT22;54839;51.364;7.246;2023-10-13T00:53:34;17.10;99.90
68051;DHT22;54839;51.364;7.246;2023-10-13T00:56:06;17.10;99.90
68051;DHT22;54839;51.364;7.246;2023-10-13T00:58:44;17.20;99.90
68051;DHT22;54839;51.364;7.246;2023-10-13T01:01:15;17.10;99.90
68051;DHT22;54839;51.364;7.246;2023-10-13T01:03:51;17.10;99.90
68051;DHT22;54839;51.364;7.246;2023-10-13T01:06:22;17.10;99.90
68051;DHT22;54839;51.364;7.246;2023-10-13T01:08:57;17.10;99.90
68051;DHT22;54839;51.364;7.246;2023-10-13T01:11:23;17.20;99.90
68051;DHT22;54839;51.364;7.246;2023-10-13T01:13:50;17.00;99.90
68051;DHT22;54839;51.364;7.246;2023-10-13T01:16:21;17.00;99.90
68051;DHT22;54839;51.364;7.246;2023-10-13T01:18:49;17.00;99.90
68051;DHT22;54839;51.364;7.246;2023-10-13T01:21:18;17.00;99.90
68051;DHT22;54839;51.364;7.246;2023-10-13T01:23:52;17.00;99.90
68051;DHT22;54839;51.364;7.246;2023-10-13T01:26:17;17.00;99.90
68051;DHT22;54839;51.364;7.246;2023-10-13T01:28:58;17.00;99.90
68051;DHT22;54839;51.364;7.246;2023-10-13T01:31:24;17.00;99.90
68051;DHT22;54839;51.364;7.246;2023-10-13T01:33:53;17.00;99.90
68051;DHT22;54839;51.364;7.246;2023-10-13T01:36:23;17.00;99.90
68051;DHT22;54839;51.364;7.246;2023-10-13T01:38:49;17.00;99.90
68051;DHT22;54839;51.364;7.246;2023-10-13T01:41:15;17.00;99.90
68051;DHT22;54839;51.364;7.246;2023-10-13T01:43:41;17.00;99.90
68051;DHT22;54839;51.364;7.246;2023-10-13T01:46:07;17.00;99.90
68051;DHT22;54839;51.364;7.246;2023-10-13T01:48:34;16.90;99.90
68051;DHT22;54839;51.364;7.246;2023-10-13T01:51:04;17.00;99.90
68051;DHT22;54839;51.364;7.246;2023-10-13T01:53:31;16.90;99.90
68051;DHT22;54839;51.364;7.246;2023-10-13T01:55:57;17.00;99.90
68051;DHT22;54839;51.364;7.246;2023-10-13T01:58:23;16.90;99.90
68051;DHT22;54839;51.364;7.246;2023-10-13T02:00:49;16.80;99.90
68051;DHT22;54839;51.364;7.246;2023-10-13T02:03:15;16.90;99.90
68051;DHT22;54839;51.364;7.246;2023-10-13T02:05:46;16.90;99.90
68051;DHT22;54839;51.364;7.246;2023-10-13T02:08:17;16.90;99.90
68051;DHT22;54839;51.364;7.246;2023-10-13T02:10:48;16.90;99.90
68051;DHT22;54839;51.364;7.246;2023-10-13T02:13:15;16.90;99.90
68051;DHT22;54839;51.364;7.246;2023-10-13T02:15:43;16.90;99.90
68051;DHT22;54839;51.364;7.246;2023-10-13T02:18:12;16.80;99.90
68051;DHT22;54839;51.364;7.246;2023-10-13T02:20:38;17.00;99.90
68051;DHT22;54839;51.364;7.246;2023-10-13T02:23:11;17.00;99.90
68051;DHT22;54839;51.364;7.246;2023-10-13T02:25:37;16.90;99.90
68051;DHT22;54839;51.364;7.246;2023-10-13T02:28:11;16.90;99.90
68051;DHT22;54839;51.364;7.246;2023-10-13T02:30:42;16.90;99.90
68051;DHT22;54839;51.364;7.246;2023-10-13T02:33:13;16.90;99.90
68051;DHT22;54839;51.364;7.246;2023-10-13T02:35:40;16.80;99.90
68051;DHT22;54839;51.364;7.246;2023-10-13T02:38:16;17.00;99.90
68051;DHT22;54839;51.364;7.246;2023-10-13T02:40:51;16.90;99.90
68051;DHT22;54839;51.364;7.246;2023-10-13T02:43:20;16.90;99.90
68051;DHT22;54839;51.364;7.246;2023-10-13T02:45:52;16.80;99.90
68051;DHT22;54839;51.364;7.246;2023-10-13T02:48:24;16.90;99.90
68051;DHT22;54839;51.364;7.246;2023-10-13T02:50:58;16.80;99.90
68051;DHT22;54839;51.364;7.246;2023-10-13T02:53:30;16.90;99.90
68051;DHT22;54839;51.364;7.246;2023-10-13T02:55:56;16.80;99.90
68051;DHT22;54839;51.364;7.246;2023-10-13T02:58:23;16.80;99.90
68051;DHT22;54839;51.364;7.246;2023-10-13T03:01:09;16.80;99.90
68051;DHT22;54839;51.364;7.246;2023-10-13T03:03:48;16.90;99.90
68051;DHT22;54839;51.364;7.246;2023-10-13T03:06:16;16.90;99.90
68051;DHT22;54839;51.364;7.246;2023-10-13T03:08:42;16.90;99.90
68051;DHT22;54839;51.364;7.246;2023-10-13T03:11:10;16.90;99.90
68051;DHT22;54839;51.364;7.246;2023-10-13T03:13:35;16.80;99.90
68051;DHT22;54839;51.364;7.246;2023-10-13T03:16:11;16.80;99.90
68051;DHT22;54839;51.364;7.246;2023-10-13T03:18:38;16.70;99.90
68051;DHT22;54839;51.364;7.246;2023-10-13T03:21:03;16.60;99.90
68051;DHT22;54839;51.364;7.246;2023-10-13T03:23:30;16.60;99.90
68051;DHT22;54839;51.364;7.246;2023-10-13T03:26:10;16.70;99.90
68051;DHT22;54839;51.364;7.246;2023-10-13T03:28:36;16.70;99.90
68051;DHT22;54839;51.364;7.246;2023-10-13T03:31:03;16.70;99.90
68051;DHT22;54839;51.364;7.246;2023-10-13T03:33:29;16.70;99.90
68051;DHT22;54839;51.364;7.246;2023-10-13T03:35:58;16.70;99.90
68051;DHT22;54839;51.364;7.246;2023-10-13T03:38:31;16.70;99.90
68051;DHT22;54839;51.364;7.246;2023-10-13T03:41:02;16.70;99.90
68051;DHT22;54839;51.364;7.246;2023-10-13T03:47:05;16.60;99.90
68051;DHT22;54839;51.364;7.246;2023-10-13T03:49:44;16.70;99.90
68051;DHT22;54839;51.364;7.246;2023-10-13T03:52:09;16.70;99.90
68051;DHT22;54839;51.364;7.246;2023-10-13T03:54:39;16.70;99.90
68051;DHT22;54839;51.364;7.246;2023-10-13T03:57:07;16.70;99.90
68051;DHT22;54839;51.364;7.246;2023-10-13T03:59:37;16.70;99.90
68051;DHT22;54839;51.364;7.246;2023-10-13T04:02:03;16.70;99.90
68051;DHT22;54839;51.364;7.246;2023-10-13T04:04:37;16.80;99.90
68051;DHT22;54839;51.364;7.246;2023-10-13T04:07:15;16.70;99.90
68051;DHT22;54839;51.364;7.246;2023-10-13T04:10:00;16.90;99.90
68051;DHT22;54839;51.364;7.246;2023-10-13T04:13:04;16.90;99.90
68051;DHT22;54839;51.364;7.246;2023-10-13T04:15:56;16.80;99.90
68051;DHT22;54839;51.364;7.246;2023-10-13T04:18:41;16.80;99.90
68051;DHT22;54839;51.364;7.246;2023-10-13T04:21:32;16.80;99.90
68051;DHT22;54839;51.364;7.246;2023-10-13T04:24:11;16.90;99.90
68051;DHT22;54839;51.364;7.246;2023-10-13T04:26:44;16.80;99.90
68051;DHT22;54839;51.364;7.246;2023-10-13T04:29:29;16.90;99.90
68051;DHT22;54839;51.364;7.246;2023-10-13T04:32:13;16.80;99.90
68051;DHT22;54839;51.364;7.246;2023-10-13T04:34:40;16.80;99.90
68051;DHT22;54839;51.364;7.246;2023-10-13T04:37:11;16.90;99.90
68051;DHT22;54839;51.364;7.246;2023-10-13T04:39:57;16.90;99.90
68051;DHT22;54839;51.364;7.246;2023-10-13T04:42:34;16.90;99.90
68051;DHT22;54839;51.364;7.246;2023-10-13T04:45:17;17.00;99.90
68051;DHT22;54839;51.364;7.246;2023-10-13T04:48:17;16.90;99.90
68051;DHT22;54839;51.364;7.246;2023-10-13T04:50:59;17.00;99.90
68051;DHT22;54839;51.364;7.246;2023-10-13T04:53:45;17.00;99.90
68051;DHT22;54839;51.364;7.246;2023-10-13T04:56:29;17.00;99.90
68051;DHT22;54839;51.364;7.246;2023-10-13T04:59:07;17.00;99.90
68051;DHT22;54839;51.364;7.246;2023-10-13T05:02:01;16.90;99.90
68051;DHT22;54839;51.364;7.246;2023-10-13T05:04:45;17.10;99.90
68051;DHT22;54839;51.364;7.246;2023-10-13T05:07:29;16.80;99.90
68051;DHT22;54839;51.364;7.246;2023-10-13T05:10:13;16.90;99.90
68051;DHT22;54839;51.364;7.246;2023-10-13T05:12:58;16.90;99.90
68051;DHT22;54839;51.364;7.246;2023-10-13T05:15:48;16.90;99.90
68051;DHT22;54839;51.364;7.246;2023-10-13T05:18:32;16.90;99.90
68051;DHT22;54839;51.364;7.246;2023-10-13T05:21:17;16.90;99.90
68051;DHT22;54839;51.364;7.246;2023-10-13T05:24:01;17.00;99.90
68051;DHT22;54839;51.364;7.246;2023-10-13T05:26:45;17.00;99.90
68051;DHT22;54839;51.364;7.246;2023-10-13T05:29:29;17.00;99.90
68051;DHT22;54839;51.364;7.246;2023-10-13T05:32:13;17.00;99.90
68051;DHT22;54839;51.364;7.246;2023-10-13T05:34:57;17.00;99.90
68051;DHT22;54839;51.364;7.246;2023-10-13T05:37:41;17.00;99.90
68051;DHT22;54839;51.364;7.246;2023-10-13T05:40:25;17.00;99.90
68051;DHT22;54839;51.364;7.246;2023-10-13T05:43:10;17.00;99.90
68051;DHT22;54839;51.364;7.246;2023-10-13T05:46:00;16.90;99.90
68051;DHT22;54839;51.364;7.246;2023-10-13T05:48:45;17.00;99.90
68051;DHT22;54839;51.364;7.246;2023-10-13T05:51:26;17.00;99.90
68051;DHT22;54839;51.364;7.246;2023-10-13T05:54:10;17.00;99.90
68051;DHT22;54839;51.364;7.246;2023-10-13T05:56:45;17.00;99.90
68051;DHT22;54839;51.364;7.246;2023-10-13T05:59:31;17.10;99.90
68051;DHT22;54839;51.364;7.246;2023-10-13T06:02:17;17.10;99.90
68051;DHT22;54839;51.364;7.246;2023-10-13T06:05:06;17.00;99.90
68051;DHT22;54839;51.364;7.246;2023-10-13T06:07:51;17.00;99.90
68051;DHT22;54839;51.364;7.246;2023-10-13T06:10:36;17.10;99.90
68051;DHT22;54839;51.364;7.246;2023-10-13T06:13:21;17.00;99.90
68051;DHT22;54839;51.364;7.246;2023-10-13T06:16:06;17.10;99.90
68051;DHT22;54839;51.364;7.246;2023-10-13T06:18:51;17.00;99.90
68051;DHT22;54839;51.364;7.246;2023-10-13T06:21:35;17.00;99.90
68051;DHT22;54839;51.364;7.246;2023-10-13T06:24:19;17.00;99.90
68051;DHT22;54839;51.364;7.246;2023-10-13T06:27:03;17.00;99.90
68051;DHT22;54839;51.364;7.246;2023-10-13T06:29:47;17.10;99.90
68051;DHT22;54839;51.364;7.246;2023-10-13T06:32:14;17.00;99.90
68051;DHT22;54839;51.364;7.246;2023-10-13T06:34:42;17.10;99.90
68051;DHT22;54839;51.364;7.246;2023-10-13T06:37:16;17.00;99.90
68051;DHT22;54839;51.364;7.246;2023-10-13T06:39:52;17.10;99.90
68051;DHT22;54839;51.364;7.246;2023-10-13T06:42:27;16.90;99.90
68051;DHT22;54839;51.364;7.246;2023-10-13T06:44:54;17.00;99.90
68051;DHT22;54839;51.364;7.246;2023-10-13T06:47:20;17.00;99.90
68051;DHT22;54839;51.364;7.246;2023-10-13T06:49:48;17.00;99.90
68051;DHT22;54839;51.364;7.246;2023-10-13T06:52:17;17.00;99.90
68051;DHT22;54839;51.364;7.246;2023-10-13T06:54:43;17.00;99.90
68051;DHT22;54839;51.364;7.246;2023-10-13T06:57:09;17.00;99.90
68051;DHT22;54839;51.364;7.246;2023-10-13T06:59:46;17.10;99.90
68051;DHT22;54839;51.364;7.246;2023-10-13T07:02:12;17.20;99.90
68051;DHT22;54839;51.364;7.246;2023-10-13T07:04:47;17.20;99.90
68051;DHT22;54839;51.364;7.246;2023-10-13T07:07:12;17.20;99.90
68051;DHT22;54839;51.364;7.246;2023-10-13T07:09:43;17.20;99.90
68051;DHT22;54839;51.364;7.246;2023-10-13T07:12:21;17.20;99.90
68051;DHT22;54839;51.364;7.246;2023-10-13T07:14:53;17.30;99.90
68051;DHT22;54839;51.364;7.246;2023-10-13T07:17:24;17.40;99.90
68051;DHT22;54839;51.364;7.246;2023-10-13T07:19:52;17.40;99.90
68051;DHT22;54839;51.364;7.246;2023-10-13T07:22:36;17.50;99.90
68051;DHT22;54839;51.364;7.246;2023-10-13T07:25:05;17.50;99.90
68051;DHT22;54839;51.364;7.246;2023-10-13T07:27:35;17.50;99.90
68051;DHT22;54839;51.364;7.246;2023-10-13T07:30:01;17.70;99.90
68051;DHT22;54839;51.364;7.246;2023-10-13T07:32:42;17.60;99.90
68051;DHT22;54839;51.364;7.246;2023-10-13T07:35:18;17.70;99.90
68051;DHT22;54839;51.364;7.246;2023-10-13T07:37:45;17.80;99.90
68051;DHT22;54839;51.364;7.246;2023-10-13T07:40:14;17.80;99.90
68051;DHT22;54839;51.364;7.246;2023-10-13T07:42:53;17.90;99.90
68051;DHT22;54839;51.364;7.246;2023-10-13T07:45:27;17.90;99.90
68051;DHT22;54839;51.364;7.246;2023-10-13T07:48:02;18.00;99.90
68051;DHT22;54839;51.364;7.246;2023-10-13T07:50:34;18.10;99.90
68051;DHT22;54839;51.364;7.246;2023-10-13T07:52:59;18.10;99.90
68051;DHT22;54839;51.364;7.246;2023-10-13T07:55:31;18.00;99.90
68051;DHT22;54839;51.364;7.246;2023-10-13T07:58:00;18.00;99.90
68051;DHT22;54839;51.364;7.246;2023-10-13T08:00:32;18.00;99.90
68051;DHT22;54839;51.364;7.246;2023-10-13T08:03:13;18.10;99.90
68051;DHT22;54839;51.364;7.246;2023-10-13T08:05:45;18.30;99.90
68051;DHT22;54839;51.364;7.246;2023-10-13T08:08:29;18.30;99.90
68051;DHT22;54839;51.364;7.246;2023-10-13T08:11:10;18.10;99.90
68051;DHT22;54839;51.364;7.246;2023-10-13T08:13:54;18.00;99.90
68051;DHT22;54839;51.364;7.246;2023-10-13T08:16:23;18.00;99.90
68051;DHT22;54839;51.364;7.246;2023-10-13T08:18:53;18.00;99.90
68051;DHT22;54839;51.364;7.246;2023-10-13T08:21:19;18.00;99.90
68051;DHT22;54839;51.364;7.246;2023-10-13T08:23:51;18.10;99.90
68051;DHT22;54839;51.364;7.246;2023-10-13T08:26:24;18.20;99.90
68051;DHT22;54839;51.364;7.246;2023-10-13T08:29:03;18.20;99.90
68051;DHT22;54839;51.364;7.246;2023-10-13T08:31:49;18.10;99.90
68051;DHT22;54839;51.364;7.246;2023-10-13T08:34:36;18.20;99.90
68051;DHT22;54839;51.364;7.246;2023-10-13T08:37:29;18.30;99.90
68051;DHT22;54839;51.364;7.246;2023-10-13T08:39:59;18.50;99.90
68051;DHT22;54839;51.364;7.246;2023-10-13T08:45:19;18.50;99.90
68051;DHT22;54839;51.364;7.246;2023-10-13T08:48:00;18.70;99.90
68051;DHT22;54839;51.364;7.246;2023-10-13T08:50:49;18.70;99.90
68051;DHT22;54839;51.364;7.246;2023-10-13T08:53:26;18.90;99.90
68051;DHT22;54839;51.364;7.246;2023-10-13T08:56:09;19.00;99.90
68051;DHT22;54839;51.364;7.246;2023-10-13T08:58:37;19.20;99.90
68051;DHT22;54839;51.364;7.246;2023-10-13T09:01:25;19.20;99.90
68051;DHT22;54839;51.364;7.246;2023-10-13T09:04:10;19.60;99.90
68051;DHT22;54839;51.364;7.246;2023-10-13T09:09:15;19.90;99.90
68051;DHT22;54839;51.364;7.246;2023-10-13T09:11:54;19.90;99.90
68051;DHT22;54839;51.364;7.246;2023-10-13T09:14:37;20.00;99.90
68051;DHT22;54839;51.364;7.246;2023-10-13T09:17:06;20.20;99.90
68051;DHT22;54839;51.364;7.246;2023-10-13T09:19:45;20.10;99.90
68051;DHT22;54839;51.364;7.246;2023-10-13T09:22:26;20.00;99.90
68051;DHT22;54839;51.364;7.246;2023-10-13T09:24:57;20.10;99.90
68051;DHT22;54839;51.364;7.246;2023-10-13T09:27:27;20.20;99.90
68051;DHT22;54839;51.364;7.246;2023-10-13T09:30:00;20.20;99.90
68051;DHT22;54839;51.364;7.246;2023-10-13T09:32:44;20.40;99.90
68051;DHT22;54839;51.364;7.246;2023-10-13T09:35:21;20.50;99.90
68051;DHT22;54839;51.364;7.246;2023-10-13T09:37:53;20.70;99.90
68051;DHT22;54839;51.364;7.246;2023-10-13T09:40:22;20.70;99.90
68051;DHT22;54839;51.364;7.246;2023-10-13T09:42:57;20.60;99.90
68051;DHT22;54839;51.364;7.246;2023-10-13T09:45:31;20.60;99.90
68051;DHT22;54839;51.364;7.246;2023-10-13T09:48:22;20.70;99.90
68051;DHT22;54839;51.364;7.246;2023-10-13T09:50:54;20.70;99.90
68051;DHT22;54839;51.364;7.246;2023-10-13T09:53:23;20.70;99.90
68051;DHT22;54839;51.364;7.246;2023-10-13T09:58:27;20.90;99.90
68051;DHT22;54839;51.364;7.246;2023-10-13T10:01:02;21.10;99.90
68051;DHT22;54839;51.364;7.246;2023-10-13T10:03:50;21.20;99.90
68051;DHT22;54839;51.364;7.246;2023-10-13T10:06:22;21.20;99.90
68051;DHT22;54839;51.364;7.246;2023-10-13T10:09:07;21.20;99.90
68051;DHT22;54839;51.364;7.246;2023-10-13T10:15:01;21.30;99.90
68051;DHT22;54839;51.364;7.246;2023-10-13T10:17:41;21.50;99.90
68051;DHT22;54839;51.364;7.246;2023-10-13T10:20:08;21.80;99.90
68051;DHT22;54839;51.364;7.246;2023-10-13T10:22:58;22.00;99.90
68051;DHT22;54839;51.364;7.246;2023-10-13T10:25:34;21.80;99.90
68051;DHT22;54839;51.364;7.246;2023-10-13T10:28:07;21.80;99.90
68051;DHT22;54839;51.364;7.246;2023-10-13T10:30:34;22.10;99.90
68051;DHT22;54839;51.364;7.246;2023-10-13T10:33:01;22.30;99.90
68051;DHT22;54839;51.364;7.246;2023-10-13T10:35:34;22.40;99.90
68051;DHT22;54839;51.364;7.246;2023-10-13T10:38:14;22.40;99.90
68051;DHT22;54839;51.364;7.246;2023-10-13T10:40:54;22.50;99.90
68051;DHT22;54839;51.364;7.246;2023-10-13T10:43:35;22.40;99.90
68051;DHT22;54839;51.364;7.246;2023-10-13T10:46:25;22.40;99.90
68051;DHT22;54839;51.364;7.246;2023-10-13T10:48:51;22.50;99.90
68051;DHT22;54839;51.364;7.246;2023-10-13T10:51:22;22.70;99.90
68051;DHT22;54839;51.364;7.246;2023-10-13T10:53:52;22.70;99.90
68051;DHT22;54839;51.364;7.246;2023-10-13T10:56:22;22.80;99.90
68051;DHT22;54839;51.364;7.246;2023-10-13T10:58:56;23.20;99.90
68051;DHT22;54839;51.364;7.246;2023-10-13T11:01:23;23.00;99.90
68051;DHT22;54839;51.364;7.246;2023-10-13T11:03:57;23.00;99.90
68051;DHT22;54839;51.364;7.246;2023-10-13T11:06:26;22.80;99.90
68051;DHT22;54839;51.364;7.246;2023-10-13T11:09:05;23.10;99.90
68051;DHT22;54839;51.364;7.246;2023-10-13T11:11:49;23.20;99.90
68051;DHT22;54839;51.364;7.246;2023-10-13T11:14:25;23.20;99.90
68051;DHT22;54839;51.364;7.246;2023-10-13T11:16:53;23.20;99.90
68051;DHT22;54839;51.364;7.246;2023-10-13T11:19:20;23.50;99.90
68051;DHT22;54839;51.364;7.246;2023-10-13T11:21:46;23.40;99.90
68051;DHT22;54839;51.364;7.246;2023-10-13T11:24:13;23.50;99.90
68051;DHT22;54839;51.364;7.246;2023-10-13T11:26:38;23.40;99.90
68051;DHT22;54839;51.364;7.246;2023-10-13T11:29:31;23.50;99.90
68051;DHT22;54839;51.364;7.246;2023-10-13T11:31:57;23.80;99.90
68051;DHT22;54839;51.364;7.246;2023-10-13T11:34:25;23.70;99.90
68051;DHT22;54839;51.364;7.246;2023-10-13T11:36:55;23.50;99.90
68051;DHT22;54839;51.364;7.246;2023-10-13T11:39:21;23.50;99.90
68051;DHT22;54839;51.364;7.246;2023-10-13T11:41:55;23.30;99.90
68051;DHT22;54839;51.364;7.246;2023-10-13T11:44:21;23.30;99.90
68051;DHT22;54839;51.364;7.246;2023-10-13T11:46:47;23.20;99.90
68051;DHT22;54839;51.364;7.246;2023-10-13T11:49:12;23.20;99.90
68051;DHT22;54839;51.364;7.246;2023-10-13T11:51:38;23.00;99.90
68051;DHT22;54839;51.364;7.246;2023-10-13T11:54:04;23.10;99.90
68051;DHT22;54839;51.364;7.246;2023-10-13T11:56:30;23.30;99.90
68051;DHT22;54839;51.364;7.246;2023-10-13T11:58:55;23.40;99.90
68051;DHT22;54839;51.364;7.246;2023-10-13T12:01:29;23.50;99.90
68051;DHT22;54839;51.364;7.246;2023-10-13T12:04:18;23.40;99.90
68051;DHT22;54839;51.364;7.246;2023-10-13T12:06:59;23.30;99.90
68051;DHT22;54839;51.364;7.246;2023-10-13T12:09:36;23.10;99.90
68051;DHT22;54839;51.364;7.246;2023-10-13T12:12:25;23.50;99.90
68051;DHT22;54839;51.364;7.246;2023-10-13T12:14:51;23.50;99.90
68051;DHT22;54839;51.364;7.246;2023-10-13T12:17:21;23.40;99.90
68051;DHT22;54839;51.364;7.246;2023-10-13T12:19:54;23.30;99.90
68051;DHT22;54839;51.364;7.246;2023-10-13T12:22:20;23.40;99.90
68051;DHT22;54839;51.364;7.246;2023-10-13T12:25:04;23.40;99.90
68051;DHT22;54839;51.364;7.246;2023-10-13T12:27:43;23.40;99.90
68051;DHT22;54839;51.364;7.246;2023-10-13T12:30:14;23.10;99.90
68051;DHT22;54839;51.364;7.246;2023-10-13T12:32:48;23.10;99.90
68051;DHT22;54839;51.364;7.246;2023-10-13T12:35:20;23.00;99.90
68051;DHT22;54839;51.364;7.246;2023-10-13T12:38:03;23.00;99.90
68051;DHT22;54839;51.364;7.246;2023-10-13T12:40:33;22.80;99.90
68051;DHT22;54839;51.364;7.246;2023-10-13T12:43:18;23.00;99.90
68051;DHT22;54839;51.364;7.246;2023-10-13T12:46:02;23.30;99.90
68051;DHT22;54839;51.364;7.246;2023-10-13T12:48:46;23.20;99.90
68051;DHT22;54839;51.364;7.246;2023-10-13T12:51:32;23.40;99.90
68051;DHT22;54839;51.364;7.246;2023-10-13T12:53:58;23.60;99.90
68051;DHT22;54839;51.364;7.246;2023-10-13T12:56:39;23.80;99.90
68051;DHT22;54839;51.364;7.246;2023-10-13T12:59:10;23.90;99.90
68051;DHT22;54839;51.364;7.246;2023-10-13T13:01:39;23.80;99.90
68051;DHT22;54839;51.364;7.246;2023-10-13T13:04:08;24.20;99.90
68051;DHT22;54839;51.364;7.246;2023-10-13T13:06:37;24.80;99.90
68051;DHT22;54839;51.364;7.246;2023-10-13T13:09:05;26.00;99.90
68051;DHT22;54839;51.364;7.246;2023-10-13T13:11:35;25.60;99.90
68051;DHT22;54839;51.364;7.246;2023-10-13T13:14:06;25.70;99.90
68051;DHT22;54839;51.364;7.246;2023-10-13T13:16:33;25.60;99.90
68051;DHT22;54839;51.364;7.246;2023-10-13T13:18:59;26.20;99.90
68051;DHT22;54839;51.364;7.246;2023-10-13T13:21:28;26.10;99.90
68051;DHT22;54839;51.364;7.246;2023-10-13T13:23:53;25.20;99.90
68051;DHT22;54839;51.364;7.246;2023-10-13T13:26:20;25.10;99.90
68051;DHT22;54839;51.364;7.246;2023-10-13T13:28:47;25.10;99.90
68051;DHT22;54839;51.364;7.246;2023-10-13T13:31:17;25.40;99.90
68051;DHT22;54839;51.364;7.246;2023-10-13T13:33:42;25.70;99.90
68051;DHT22;54839;51.364;7.246;2023-10-13T13:36:12;25.40;99.90
68051;DHT22;54839;51.364;7.246;2023-10-13T13:38:41;24.90;99.90
68051;DHT22;54839;51.364;7.246;2023-10-13T13:41:14;25.60;99.90
68051;DHT22;54839;51.364;7.246;2023-10-13T13:43:47;26.10;99.90
68051;DHT22;54839;51.364;7.246;2023-10-13T13:46:16;25.40;99.90
68051;DHT22;54839;51.364;7.246;2023-10-13T13:48:42;24.30;99.90
68051;DHT22;54839;51.364;7.246;2023-10-13T13:51:08;24.00;99.90
68051;DHT22;54839;51.364;7.246;2023-10-13T13:53:41;24.00;99.90
68051;DHT22;54839;51.364;7.246;2023-10-13T13:56:11;23.80;99.90
68051;DHT22;54839;51.364;7.246;2023-10-13T13:58:48;23.80;99.90
68051;DHT22;54839;51.364;7.246;2023-10-13T14:01:14;23.70;99.90
68051;DHT22;54839;51.364;7.246;2023-10-13T14:03:51;23.50;99.90
68051;DHT22;54839;51.364;7.246;2023-10-13T14:06:21;23.50;99.90
68051;DHT22;54839;51.364;7.246;2023-10-13T14:08:57;23.60;99.90
68051;DHT22;54839;51.364;7.246;2023-10-13T14:11:26;23.50;99.90
68051;DHT22;54839;51.364;7.246;2023-10-13T14:14:08;23.70;99.90
68051;DHT22;54839;51.364;7.246;2023-10-13T14:16:41;24.70;99.90
68051;DHT22;54839;51.364;7.246;2023-10-13T14:19:11;26.00;99.90
68051;DHT22;54839;51.364;7.246;2023-10-13T14:21:38;25.10;99.90
68051;DHT22;54839;51.364;7.246;2023-10-13T14:24:03;24.80;99.90
68051;DHT22;54839;51.364;7.246;2023-10-13T14:26:38;24.70;99.90
68051;DHT22;54839;51.364;7.246;2023-10-13T14:29:04;24.10;99.90
68051;DHT22;54839;51.364;7.246;2023-10-13T14:31:40;23.70;99.90
68051;DHT22;54839;51.364;7.246;2023-10-13T14:34:06;23.60;99.90
68051;DHT22;54839;51.364;7.246;2023-10-13T14:36:32;23.40;99.90
68051;DHT22;54839;51.364;7.246;2023-10-13T14:39:01;23.40;99.90
68051;DHT22;54839;51.364;7.246;2023-10-13T14:41:27;23.50;99.90
68051;DHT22;54839;51.364;7.246;2023-10-13T14:43:53;23.20;99.90
68051;DHT22;54839;51.364;7.246;2023-10-13T14:46:22;23.10;99.90
68051;DHT22;54839;51.364;7.246;2023-10-13T14:48:54;23.00;99.90
68051;DHT22;54839;51.364;7.246;2023-10-13T14:51:20;23.00;99.90
68051;DHT22;54839;51.364;7.246;2023-10-13T14:53:47;22.80;99.90
68051;DHT22;54839;51.364;7.246;2023-10-13T14:56:16;22.90;99.90
68051;DHT22;54839;51.364;7.246;2023-10-13T14:58:43;22.80;99.90
68051;DHT22;54839;51.364;7.246;2023-10-13T15:01:12;22.60;99.90
68051;DHT22;54839;51.364;7.246;2023-10-13T15:03:43;22.60;99.90
68051;DHT22;54839;51.364;7.246;2023-10-13T15:06:19;22.80;99.90
68051;DHT22;54839;51.364;7.246;2023-10-13T15:08:46;22.60;99.90
68051;DHT22;54839;51.364;7.246;2023-10-13T15:11:13;22.70;99.90
68051;DHT22;54839;51.364;7.246;2023-10-13T15:13:42;22.50;99.90
68051;DHT22;54839;51.364;7.246;2023-10-13T15:16:14;22.50;99.90
68051;DHT22;54839;51.364;7.246;2023-10-13T15:18:46;22.40;99.90
68051;DHT22;54839;51.364;7.246;2023-10-13T15:21:25;22.30;99.90
68051;DHT22;54839;51.364;7.246;2023-10-13T15:23:57;22.40;99.90
68051;DHT22;54839;51.364;7.246;2023-10-13T15:26:30;22.40;99.90
68051;DHT22;54839;51.364;7.246;2023-10-13T15:28:57;22.50;99.90
68051;DHT22;54839;51.364;7.246;2023-10-13T15:31:23;22.40;99.90
68051;DHT22;54839;51.364;7.246;2023-10-13T15:33:53;22.30;99.90
68051;DHT22;54839;51.364;7.246;2023-10-13T15:36:23;22.30;99.90
68051;DHT22;54839;51.364;7.246;2023-10-13T15:38:53;22.20;99.90
68051;DHT22;54839;51.364;7.246;2023-10-13T15:41:26;22.30;99.90
68051;DHT22;54839;51.364;7.246;2023-10-13T15:43:52;22.20;99.90
68051;DHT22;54839;51.364;7.246;2023-10-13T15:46:20;22.30;99.90
68051;DHT22;54839;51.364;7.246;2023-10-13T15:48:47;22.30;99.90
68051;DHT22;54839;51.364;7.246;2023-10-13T15:51:13;22.30;99.90
68051;DHT22;54839;51.364;7.246;2023-10-13T15:53:39;22.10;99.90
68051;DHT22;54839;51.364;7.246;2023-10-13T15:56:06;22.20;99.90
68051;DHT22;54839;51.364;7.246;2023-10-13T15:58:47;22.20;99.90
68051;DHT22;54839;51.364;7.246;2023-10-13T16:01:14;22.10;99.90
68051;DHT22;54839;51.364;7.246;2023-10-13T16:03:48;22.10;99.90
68051;DHT22;54839;51.364;7.246;2023-10-13T16:06:17;22.00;99.90
68051;DHT22;54839;51.364;7.246;2023-10-13T16:08:43;22.00;99.90
68051;DHT22;54839;51.364;7.246;2023-10-13T16:11:13;22.10;99.90
68051;DHT22;54839;51.364;7.246;2023-10-13T16:13:57;22.00;99.90
68051;DHT22;54839;51.364;7.246;2023-10-13T16:16:23;22.00;99.90
68051;DHT22;54839;51.364;7.246;2023-10-13T16:18:50;21.90;99.90
68051;DHT22;54839;51.364;7.246;2023-10-13T16:21:16;21.90;99.90
68051;DHT22;54839;51.364;7.246;2023-10-13T16:23:42;21.90;99.90